VRMM/MLE METAR and TAF weather

Enter ICAO airport designator
Station Type Date Time Source
VRMM METAR 2019/06/27 10:00 UTC NOAA

VRMM 271000Z 30007KT 9999 FEW018 BKN270 31/25 Q1008 NOSIG


Station Type Date Time Source
VRMM Decoded METAR 2019/06/27 10:00 UTC NOAA

Male, Maldives (VRMM) 04-12N 073-32E 2M
Jun 27, 2019 - 06:00 AM EDT / 2019.06.27 1000 UTC
Wind: from the WNW (300 degrees) at 8 MPH (7 KT):0
Visibility: greater than 7 mile(s):0
Sky conditions: mostly cloudy
Temperature: 87 F (31 C)
Heat index: 97.5 F (36.4 C):1
Dew Point: 77 F (25 C)
Relative Humidity: 70%
Pressure (altimeter): 29.77 in. Hg (1008 hPa)
ob: VRMM 271000Z 30007KT 9999 FEW018 BKN270 31/25 Q1008 NOSIG
cycle: 10

Station Type Date Time Source
VRMM TAF 2019/06/27 06:33 UTC NOAA

TAF VRMM 270500Z 2706/2812 29007KT 9999 FEW018TCU
TEMPO 2706/2712 FEW018CB

Example: see airport list